createdAt,value
2023-03-21T00:00:55.328Z,9.45
2023-03-21T00:03:23.628Z,9.40
2023-03-21T00:05:53.524Z,9.43
2023-03-21T00:08:22.244Z,9.41
2023-03-21T00:10:56.744Z,9.46
2023-03-21T00:13:26.372Z,9.51
2023-03-21T00:16:05.815Z,9.46
2023-03-21T00:18:41.862Z,9.46
2023-03-21T00:24:01.939Z,9.48
2023-03-21T00:26:31.564Z,9.48
2023-03-21T00:28:59.384Z,9.46
2023-03-21T00:31:28.189Z,9.49
2023-03-21T00:33:56.864Z,9.48
2023-03-21T00:36:26.052Z,9.54
2023-03-21T00:38:54.520Z,9.60
2023-03-21T00:41:41.005Z,9.54
2023-03-21T00:44:13.373Z,9.52
2023-03-21T00:46:51.624Z,9.55
2023-03-21T00:49:25.004Z,9.51
2023-03-21T00:51:55.348Z,9.57
2023-03-21T00:54:25.905Z,9.62
2023-03-21T00:56:55.448Z,9.53
2023-03-21T00:59:24.363Z,9.53
2023-03-21T01:01:53.514Z,9.54
2023-03-21T01:04:26.338Z,9.51
2023-03-21T01:06:54.948Z,9.51
2023-03-21T01:09:24.427Z,9.53
2023-03-21T01:11:53.959Z,9.56
2023-03-21T01:14:28.013Z,9.60
2023-03-21T01:16:55.982Z,9.57
2023-03-21T01:19:40.636Z,9.56
2023-03-21T01:22:12.503Z,9.54
2023-03-21T01:24:46.809Z,9.52
2023-03-21T01:27:20.749Z,9.53
2023-03-21T01:29:51.008Z,9.53
2023-03-21T01:32:20.707Z,9.54
2023-03-21T01:34:48.371Z,9.56
2023-03-21T01:37:18.601Z,9.56
2023-03-21T01:39:50.145Z,9.57
2023-03-21T01:42:18.886Z,9.58
2023-03-21T01:44:58.198Z,9.57
2023-03-21T01:47:34.706Z,9.58
2023-03-21T01:50:23.437Z,9.61
2023-03-21T01:53:04.903Z,9.68
2023-03-21T01:55:38.128Z,9.62
2023-03-21T01:58:14.081Z,9.60
2023-03-21T02:01:22.759Z,9.59
2023-03-21T02:03:53.876Z,9.62
2023-03-21T02:06:51.903Z,9.62
2023-03-21T02:09:36.317Z,9.62
2023-03-21T02:12:10.298Z,9.60
2023-03-21T02:15:05.594Z,9.63
2023-03-21T02:17:51.863Z,9.61
2023-03-21T02:20:55.846Z,9.68
2023-03-21T02:23:59.745Z,9.67
2023-03-21T02:27:03.625Z,9.67
2023-03-21T02:30:06.114Z,9.66
2023-03-21T02:32:52.888Z,9.62
2023-03-21T02:35:37.120Z,9.65
2023-03-21T02:38:20.163Z,9.59
2023-03-21T02:41:07.673Z,9.60
2023-03-21T02:43:45.843Z,9.63
2023-03-21T02:46:19.703Z,9.65
2023-03-21T02:48:55.419Z,9.64
2023-03-21T02:51:25.335Z,9.66
2023-03-21T02:54:24.878Z,9.67
2023-03-21T02:56:51.235Z,9.69
2023-03-21T02:59:20.976Z,9.71
2023-03-21T03:01:51.926Z,9.69
2023-03-21T03:04:21.085Z,9.67
2023-03-21T03:07:08.908Z,9.68
2023-03-21T03:09:53.962Z,9.70
2023-03-21T03:12:33.628Z,9.68
2023-03-21T03:15:11.519Z,9.69
2023-03-21T03:17:49.906Z,9.70
2023-03-21T03:20:53.629Z,9.68
2023-03-21T03:23:28.991Z,9.67
2023-03-21T03:26:05.567Z,9.68
2023-03-21T03:28:38.249Z,9.71
2023-03-21T03:31:15.216Z,9.66
2023-03-21T03:33:53.062Z,9.68
2023-03-21T03:36:32.017Z,9.66
2023-03-21T03:39:07.897Z,9.69
2023-03-21T03:42:05.944Z,9.63
2023-03-21T03:44:37.669Z,9.64
2023-03-21T03:47:15.180Z,9.63
2023-03-21T03:49:52.688Z,9.68
2023-03-21T03:52:24.978Z,9.67
2023-03-21T03:54:59.990Z,9.64
2023-03-21T03:57:33.330Z,9.68
2023-03-21T04:00:00.986Z,9.67
2023-03-21T04:02:47.012Z,9.63
2023-03-21T04:05:21.021Z,9.61
2023-03-21T04:08:19.892Z,9.61
2023-03-21T04:13:54.699Z,9.58
2023-03-21T04:16:24.225Z,9.57
2023-03-21T04:18:52.998Z,9.56
2023-03-21T04:21:21.589Z,9.55
2023-03-21T04:23:49.181Z,9.54
2023-03-21T04:26:17.407Z,9.56
2023-03-21T04:29:03.994Z,9.57
2023-03-21T04:32:18.878Z,9.56
2023-03-21T04:34:57.881Z,9.55
2023-03-21T04:37:25.918Z,9.55
2023-03-21T04:39:55.981Z,9.56
2023-03-21T04:43:14.900Z,9.55
2023-03-21T04:45:46.899Z,9.55
2023-03-21T04:48:17.797Z,9.58
2023-03-21T04:50:45.427Z,9.55
2023-03-21T04:53:13.983Z,9.55
2023-03-21T04:55:41.695Z,9.55
2023-03-21T04:58:09.478Z,9.61
2023-03-21T05:00:38.372Z,9.60
2023-03-21T05:03:09.164Z,9.55
2023-03-21T05:05:39.784Z,9.53
2023-03-21T05:08:08.321Z,9.51
2023-03-21T05:10:35.940Z,9.51
2023-03-21T05:13:03.720Z,9.60
2023-03-21T05:15:33.087Z,9.54
2023-03-21T05:18:11.475Z,9.48
2023-03-21T05:20:55.162Z,9.50
2023-03-21T05:23:24.484Z,9.49
2023-03-21T05:25:53.064Z,9.46
2023-03-21T05:28:36.980Z,9.47
2023-03-21T05:31:05.627Z,9.55
2023-03-21T05:33:33.858Z,9.46
2023-03-21T05:36:02.944Z,9.46
2023-03-21T05:38:33.028Z,9.45
2023-03-21T05:41:00.689Z,9.45
2023-03-21T05:43:28.991Z,9.45
2023-03-21T05:45:57.917Z,9.46
2023-03-21T05:48:29.339Z,9.48
2023-03-21T05:51:19.508Z,9.47
2023-03-21T05:53:48.439Z,9.47
2023-03-21T05:56:17.327Z,9.48
2023-03-21T05:58:58.429Z,9.48
2023-03-21T06:01:26.579Z,9.49
2023-03-21T06:04:05.984Z,9.54
2023-03-21T06:06:35.876Z,9.52
2023-03-21T06:09:06.269Z,9.53
2023-03-21T06:11:36.905Z,9.55
2023-03-21T06:14:29.921Z,9.56
2023-03-21T06:17:16.975Z,9.59
2023-03-21T06:19:54.686Z,9.58
2023-03-21T06:22:29.084Z,9.59
2023-03-21T06:24:59.309Z,9.59
2023-03-21T06:27:28.035Z,9.59
2023-03-21T06:29:57.949Z,9.63
2023-03-21T06:32:26.296Z,9.68
2023-03-21T06:34:59.609Z,9.74
2023-03-21T06:37:28.732Z,9.68
2023-03-21T06:39:57.386Z,9.70
2023-03-21T06:42:26.993Z,9.72
2023-03-21T06:45:20.330Z,9.62
2023-03-21T06:47:48.704Z,9.63
2023-03-21T06:50:28.258Z,9.70
2023-03-21T06:53:00.990Z,9.68
2023-03-21T06:55:33.396Z,9.64
2023-03-21T06:58:02.628Z,9.66
2023-03-21T07:00:30.465Z,9.67
2023-03-21T07:03:00.047Z,9.66
2023-03-21T07:05:28.127Z,9.69
2023-03-21T07:08:01.352Z,9.70
2023-03-21T07:10:32.630Z,9.76
2023-03-21T07:13:06.413Z,9.80
2023-03-21T07:18:38.869Z,9.77
2023-03-21T07:21:06.981Z,9.74
2023-03-21T07:23:38.134Z,9.74
2023-03-21T07:26:07.145Z,9.77
2023-03-21T07:28:34.757Z,9.78
2023-03-21T07:31:04.896Z,9.78
2023-03-21T07:33:34.794Z,9.80
2023-03-21T07:36:03.246Z,9.81
2023-03-21T07:38:31.839Z,9.83
2023-03-21T07:41:02.902Z,9.84
2023-03-21T07:43:34.753Z,9.85
2023-03-21T07:46:07.167Z,9.93
2023-03-21T07:48:34.994Z,9.86
2023-03-21T07:51:02.918Z,9.85
2023-03-21T07:53:31.352Z,9.86
2023-03-21T07:55:59.047Z,9.86
2023-03-21T07:58:28.458Z,9.88
2023-03-21T08:00:57.908Z,9.94
2023-03-21T08:03:29.244Z,9.91
2023-03-21T08:05:57.032Z,9.94
2023-03-21T08:08:24.617Z,9.92
2023-03-21T08:10:54.001Z,9.94
2023-03-21T08:13:22.928Z,9.95
2023-03-21T08:15:52.005Z,9.98
2023-03-21T08:18:19.918Z,9.92
2023-03-21T08:20:47.981Z,9.93
2023-03-21T08:23:15.914Z,9.92
2023-03-21T08:25:43.508Z,9.94
2023-03-21T08:28:11.455Z,9.95
2023-03-21T08:31:03.769Z,10.03
2023-03-21T08:33:32.771Z,9.96
2023-03-21T08:36:00.846Z,9.99
2023-03-21T08:38:29.762Z,10.03
2023-03-21T08:41:00.128Z,10.10
2023-03-21T08:43:28.033Z,9.98
2023-03-21T08:45:56.084Z,10.11
2023-03-21T08:48:25.085Z,9.97
2023-03-21T08:50:57.759Z,10.04
2023-03-21T08:53:25.482Z,9.97
2023-03-21T08:55:53.157Z,9.97
2023-03-21T08:58:22.411Z,10.07
2023-03-21T09:00:50.009Z,10.05
2023-03-21T09:03:19.973Z,10.20
2023-03-21T09:05:48.015Z,10.05
2023-03-21T09:08:17.066Z,10.18
2023-03-21T09:10:44.643Z,10.09
2023-03-21T09:13:13.984Z,10.25
2023-03-21T09:15:43.450Z,10.15
2023-03-21T09:18:17.984Z,10.18
2023-03-21T09:20:49.297Z,10.13
2023-03-21T09:23:18.258Z,10.15
2023-03-21T09:26:12.463Z,10.21
2023-03-21T09:28:40.469Z,10.27
2023-03-21T09:31:12.000Z,10.32
2023-03-21T09:33:41.269Z,10.34
2023-03-21T09:36:14.929Z,10.41
2023-03-21T09:38:45.442Z,10.45
2023-03-21T09:41:27.401Z,10.51
2023-03-21T09:44:08.115Z,10.58
2023-03-21T09:46:44.565Z,10.68
2023-03-21T09:49:18.009Z,10.75
2023-03-21T09:51:52.885Z,10.65
2023-03-21T09:54:27.242Z,10.59
2023-03-21T09:56:58.992Z,10.72
2023-03-21T09:59:33.816Z,10.70
2023-03-21T10:02:03.220Z,10.70
2023-03-21T10:04:32.948Z,10.74
2023-03-21T10:07:03.965Z,10.75
2023-03-21T10:09:34.693Z,10.72
2023-03-21T10:12:08.178Z,10.78
2023-03-21T10:14:38.850Z,10.79
2023-03-21T10:17:19.643Z,10.78
2023-03-21T10:19:51.908Z,10.84
2023-03-21T10:22:21.507Z,10.89
2023-03-21T10:24:50.602Z,10.85
2023-03-21T10:27:18.373Z,10.89
2023-03-21T10:29:47.119Z,10.97
2023-03-21T10:32:18.356Z,10.99
2023-03-21T10:34:52.933Z,11.03
2023-03-21T10:37:21.521Z,11.14
2023-03-21T10:39:52.805Z,11.19
2023-03-21T10:42:23.950Z,11.15
2023-03-21T10:44:54.913Z,11.13
2023-03-21T10:47:25.464Z,11.12
2023-03-21T10:50:10.193Z,11.24
2023-03-21T10:52:43.090Z,11.20
2023-03-21T10:55:22.331Z,11.20
2023-03-21T10:57:55.968Z,11.35
2023-03-21T11:00:27.083Z,11.24
2023-03-21T11:02:55.675Z,11.24
2023-03-21T11:05:29.022Z,11.29
2023-03-21T11:08:00.029Z,11.29
2023-03-21T11:10:32.995Z,11.22
2023-03-21T11:13:06.970Z,11.19
2023-03-21T11:15:43.126Z,11.32
2023-03-21T11:18:20.913Z,11.22
2023-03-21T11:20:54.530Z,11.23
2023-03-21T11:23:26.554Z,11.19
2023-03-21T11:25:56.156Z,11.23
2023-03-21T11:28:28.490Z,11.27
2023-03-21T11:31:01.203Z,11.33
2023-03-21T11:33:35.483Z,11.31
2023-03-21T11:36:06.019Z,11.26
2023-03-21T11:38:38.176Z,11.33
2023-03-21T11:41:07.961Z,11.33
2023-03-21T11:43:37.506Z,11.34
2023-03-21T11:46:09.891Z,11.29
2023-03-21T11:49:03.392Z,11.34
2023-03-21T11:51:39.003Z,11.36
2023-03-21T11:54:13.697Z,11.39
2023-03-21T11:56:47.355Z,11.57
2023-03-21T11:59:30.930Z,11.48
2023-03-21T12:02:10.014Z,11.41
2023-03-21T12:04:43.328Z,11.42
2023-03-21T12:07:26.679Z,11.40
2023-03-21T12:10:02.915Z,11.47
2023-03-21T12:12:43.999Z,11.45
2023-03-21T12:15:19.812Z,11.44
2023-03-21T12:17:55.928Z,11.50
2023-03-21T12:20:40.233Z,11.46
2023-03-21T12:23:22.117Z,11.60
2023-03-21T12:25:57.936Z,11.45
2023-03-21T12:29:16.055Z,11.53
2023-03-21T12:31:56.613Z,11.60
2023-03-21T12:34:54.582Z,11.42
2023-03-21T12:37:33.552Z,11.43
2023-03-21T12:40:10.841Z,11.52
2023-03-21T12:42:52.012Z,11.61
2023-03-21T12:45:26.135Z,11.59
2023-03-21T12:48:01.212Z,11.68
2023-03-21T12:50:32.784Z,11.64
2023-03-21T12:53:07.688Z,11.70
2023-03-21T12:55:36.560Z,11.80
2023-03-21T12:58:07.059Z,11.74
2023-03-21T13:00:43.352Z,11.72
2023-03-21T13:03:15.070Z,11.69
2023-03-21T13:05:47.562Z,11.90
2023-03-21T13:08:19.292Z,11.83
2023-03-21T13:10:47.956Z,11.93
2023-03-21T13:13:23.662Z,11.81
2023-03-21T13:16:11.937Z,11.82
2023-03-21T13:18:54.592Z,11.83
2023-03-21T13:21:31.999Z,12.09
2023-03-21T13:24:03.725Z,11.97
2023-03-21T13:26:39.166Z,12.02
2023-03-21T13:29:24.354Z,12.07
2023-03-21T13:31:57.538Z,12.02
2023-03-21T13:34:26.675Z,12.07
2023-03-21T13:36:57.773Z,12.20
2023-03-21T13:39:31.000Z,12.15
2023-03-21T13:42:05.045Z,12.21
2023-03-21T13:44:40.810Z,12.20
2023-03-21T13:47:25.226Z,12.31
2023-03-21T13:50:30.098Z,12.25
2023-03-21T13:53:22.922Z,12.11
2023-03-21T13:56:26.293Z,12.12
2023-03-21T13:58:58.980Z,12.14
2023-03-21T14:01:41.235Z,12.24
2023-03-21T14:04:20.138Z,12.18
2023-03-21T14:06:55.305Z,12.20
2023-03-21T14:09:29.083Z,12.23
2023-03-21T14:12:03.994Z,12.21
2023-03-21T14:14:39.393Z,12.29
2023-03-21T14:17:13.945Z,12.23
2023-03-21T14:19:42.928Z,12.24
2023-03-21T14:22:12.941Z,12.26
2023-03-21T14:24:41.197Z,12.26
2023-03-21T14:27:09.682Z,12.38
2023-03-21T14:29:37.328Z,12.32
2023-03-21T14:32:06.738Z,12.32
2023-03-21T14:34:36.479Z,12.38
2023-03-21T14:37:08.967Z,12.37
2023-03-21T14:39:36.626Z,12.39
2023-03-21T14:42:06.627Z,12.37
2023-03-21T14:44:51.261Z,12.38
2023-03-21T14:47:25.121Z,12.38
2023-03-21T14:49:53.990Z,12.39
2023-03-21T14:52:27.028Z,12.38
2023-03-21T14:54:55.831Z,12.41
2023-03-21T14:57:29.076Z,12.32
2023-03-21T15:00:00.296Z,12.33
2023-03-21T15:02:31.964Z,12.30
2023-03-21T15:05:09.342Z,12.26
2023-03-21T15:07:38.617Z,12.24
2023-03-21T15:10:09.288Z,12.35
2023-03-21T15:12:36.902Z,12.26
2023-03-21T15:15:05.691Z,12.21
2023-03-21T15:17:33.566Z,12.27
2023-03-21T15:20:01.615Z,12.27
2023-03-21T15:22:34.107Z,12.32
2023-03-21T15:25:06.680Z,12.34
2023-03-21T15:27:39.294Z,12.35
2023-03-21T15:30:08.934Z,12.39
2023-03-21T15:32:38.192Z,12.37
2023-03-21T15:35:09.096Z,12.38
2023-03-21T15:37:39.237Z,12.41
2023-03-21T15:40:17.027Z,12.42
2023-03-21T15:42:44.818Z,12.39
2023-03-21T15:45:20.117Z,12.38
2023-03-21T15:47:59.930Z,12.38
2023-03-21T15:50:34.130Z,12.31
2023-03-21T15:53:04.555Z,12.27
2023-03-21T15:55:40.350Z,12.23
2023-03-21T15:58:16.212Z,12.18
2023-03-21T16:00:49.758Z,12.19
2023-03-21T16:03:21.969Z,12.17
2023-03-21T16:06:10.970Z,12.20
2023-03-21T16:08:46.102Z,12.22
2023-03-21T16:11:24.464Z,12.25
2023-03-21T16:13:53.464Z,12.30
2023-03-21T16:16:23.112Z,12.37
2023-03-21T16:18:51.859Z,12.26
2023-03-21T16:21:21.869Z,12.35
2023-03-21T16:23:49.804Z,12.37
2023-03-21T16:26:21.982Z,12.37
2023-03-21T16:28:51.261Z,12.35
2023-03-21T16:31:21.182Z,12.31
2023-03-21T16:33:54.937Z,12.39
2023-03-21T16:36:25.962Z,12.35
2023-03-21T16:38:55.616Z,12.36
2023-03-21T16:41:27.054Z,12.33
2023-03-21T16:43:55.587Z,12.34
2023-03-21T16:46:25.307Z,12.33
2023-03-21T16:48:59.937Z,12.36
2023-03-21T16:51:33.278Z,12.28
2023-03-21T16:54:02.954Z,12.28
2023-03-21T16:56:39.421Z,12.26
2023-03-21T16:59:07.872Z,12.28
2023-03-21T17:01:38.317Z,12.19
2023-03-21T17:04:06.089Z,12.17
2023-03-21T17:06:41.957Z,12.11
2023-03-21T17:09:13.260Z,12.01
2023-03-21T17:11:43.969Z,12.01
2023-03-21T17:14:16.097Z,11.95
2023-03-21T17:16:46.177Z,11.95
2023-03-21T17:19:16.337Z,11.92
2023-03-21T17:21:44.031Z,11.91
2023-03-21T17:24:11.944Z,11.87
2023-03-21T17:26:39.647Z,11.86
2023-03-21T17:29:11.675Z,11.85
2023-03-21T17:31:39.405Z,11.85
2023-03-21T17:34:06.986Z,11.85
2023-03-21T17:36:38.372Z,11.82
2023-03-21T17:39:08.546Z,11.77
2023-03-21T17:41:36.438Z,11.82
2023-03-21T17:44:04.404Z,11.79
2023-03-21T17:46:36.888Z,11.76
2023-03-21T17:49:06.522Z,11.78
2023-03-21T17:51:34.597Z,11.76
2023-03-21T17:54:02.597Z,11.72
2023-03-21T17:56:31.843Z,11.73
2023-03-21T17:59:01.396Z,11.72
2023-03-21T18:01:30.591Z,11.73
2023-03-21T18:04:02.507Z,11.66
2023-03-21T18:06:30.321Z,11.66
2023-03-21T18:09:00.348Z,11.67
2023-03-21T18:11:28.160Z,11.67
2023-03-21T18:14:09.855Z,11.66
2023-03-21T18:16:41.952Z,11.63
2023-03-21T18:19:13.138Z,11.68
2023-03-21T18:21:44.770Z,11.65
2023-03-21T18:24:12.790Z,11.62
2023-03-21T18:26:41.041Z,11.60
2023-03-21T18:30:08.059Z,11.60
2023-03-21T18:32:06.468Z,11.63
2023-03-21T18:34:38.772Z,11.58
2023-03-21T18:37:08.790Z,11.57
2023-03-21T18:39:36.675Z,11.56
2023-03-21T18:42:05.018Z,11.53
2023-03-21T18:44:37.447Z,11.55
2023-03-21T18:47:06.386Z,11.55
2023-03-21T18:50:10.401Z,11.51
2023-03-21T18:52:26.288Z,11.48
2023-03-21T18:54:55.439Z,11.48
2023-03-21T18:57:39.381Z,11.44
2023-03-21T19:00:12.901Z,11.42
2023-03-21T19:02:50.767Z,11.47
2023-03-21T19:05:24.141Z,11.45
2023-03-21T19:07:53.969Z,11.42
2023-03-21T19:10:23.979Z,11.36
2023-03-21T19:12:53.326Z,11.32
2023-03-21T19:15:23.962Z,11.29
2023-03-21T19:20:45.491Z,11.23
2023-03-21T19:23:13.139Z,11.19
2023-03-21T19:25:40.965Z,11.18
2023-03-21T19:28:09.633Z,11.16
2023-03-21T19:30:38.243Z,11.14
2023-03-21T19:33:06.243Z,11.14
2023-03-21T19:35:37.291Z,11.14
2023-03-21T19:38:06.489Z,11.09
2023-03-21T19:40:35.083Z,11.05
2023-03-21T19:43:21.656Z,11.02
2023-03-21T19:45:54.015Z,11.00
2023-03-21T19:48:23.421Z,11.01
2023-03-21T19:51:20.564Z,11.00
2023-03-21T19:53:41.133Z,11.00
2023-03-21T19:56:21.148Z,10.99
2023-03-21T19:58:50.938Z,10.96
2023-03-21T20:01:18.622Z,10.95
2023-03-21T20:03:46.457Z,10.93
2023-03-21T20:06:14.336Z,11.01
2023-03-21T20:09:17.205Z,10.89
2023-03-21T20:11:32.868Z,10.83
2023-03-21T20:14:02.886Z,10.81
2023-03-21T20:16:35.056Z,10.81
2023-03-21T20:19:03.498Z,10.80
2023-03-21T20:21:38.866Z,10.81
2023-03-21T20:24:13.627Z,10.80
2023-03-21T20:26:41.363Z,10.83
2023-03-21T20:29:51.810Z,10.85
2023-03-21T20:31:57.081Z,10.81
2023-03-21T20:34:24.663Z,10.84
2023-03-21T20:36:53.974Z,10.83
2023-03-21T20:39:23.195Z,10.79
2023-03-21T20:41:51.133Z,10.77
2023-03-21T20:44:48.164Z,10.77
2023-03-21T20:47:08.235Z,10.83
2023-03-21T20:49:36.420Z,10.76
2023-03-21T20:54:57.259Z,10.73
2023-03-21T20:57:27.012Z,10.64
2023-03-21T20:59:55.148Z,10.60
2023-03-21T21:02:26.435Z,10.57
2023-03-21T21:05:24.080Z,10.52
2023-03-21T21:07:45.892Z,10.48
2023-03-21T21:10:17.893Z,10.45
2023-03-21T21:12:46.153Z,10.43
2023-03-21T21:15:16.549Z,10.43
2023-03-21T21:18:04.722Z,10.38
2023-03-21T21:20:33.964Z,10.34
2023-03-21T21:23:01.557Z,10.31
2023-03-21T21:25:33.451Z,10.30
2023-03-21T21:28:02.249Z,10.27
2023-03-21T21:30:31.129Z,10.22
2023-03-21T21:33:00.619Z,10.23
2023-03-21T21:35:28.464Z,10.18
2023-03-21T21:37:56.098Z,10.16
2023-03-21T21:40:24.151Z,10.14
2023-03-21T21:42:53.166Z,10.09
2023-03-21T21:45:22.247Z,10.04
2023-03-21T21:47:50.093Z,10.04
2023-03-21T21:50:18.896Z,10.01
2023-03-21T21:52:53.092Z,9.97
2023-03-21T21:55:21.013Z,9.94
2023-03-21T21:57:50.151Z,9.92
2023-03-21T22:00:21.201Z,9.88
2023-03-21T22:02:48.990Z,9.87
2023-03-21T22:05:18.843Z,9.83
2023-03-21T22:07:46.957Z,9.81
2023-03-21T22:10:40.809Z,9.78
2023-03-21T22:13:10.965Z,9.76
2023-03-21T22:15:40.210Z,9.72
2023-03-21T22:18:08.170Z,9.70
2023-03-21T22:20:35.803Z,9.68
2023-03-21T22:23:03.602Z,9.64
2023-03-21T22:25:32.954Z,9.62
2023-03-21T22:28:00.633Z,9.55
2023-03-21T22:30:28.621Z,9.52
2023-03-21T22:33:08.934Z,9.49
2023-03-21T22:35:38.163Z,9.46
2023-03-21T22:38:06.181Z,9.44
2023-03-21T22:40:33.897Z,9.46
2023-03-21T22:43:01.469Z,9.42
2023-03-21T22:45:29.988Z,9.45
2023-03-21T22:47:59.746Z,9.46
2023-03-21T22:50:27.810Z,9.45
2023-03-21T22:52:56.421Z,9.45
2023-03-21T22:55:24.396Z,9.49
2023-03-21T22:57:52.562Z,9.48
2023-03-21T23:00:20.959Z,9.49
2023-03-21T23:02:48.535Z,9.55
2023-03-21T23:05:17.881Z,9.56
2023-03-21T23:07:45.746Z,9.55
2023-03-21T23:10:13.359Z,9.57
2023-03-21T23:12:41.128Z,9.59
2023-03-21T23:15:10.785Z,9.64
2023-03-21T23:17:38.915Z,9.69
2023-03-21T23:20:08.425Z,9.69
2023-03-21T23:22:37.586Z,9.72
2023-03-21T23:25:07.546Z,9.76
2023-03-21T23:27:36.286Z,9.77
2023-03-21T23:30:06.345Z,9.80
2023-03-21T23:32:34.242Z,9.80
2023-03-21T23:35:01.846Z,9.85
2023-03-21T23:37:30.356Z,9.93
2023-03-21T23:40:00.116Z,9.92
2023-03-21T23:42:30.227Z,9.91
2023-03-21T23:44:58.120Z,9.94
2023-03-21T23:47:25.873Z,9.98
2023-03-21T23:49:54.442Z,9.99
2023-03-21T23:52:22.186Z,9.98
2023-03-21T23:54:49.996Z,10.03
2023-03-21T23:57:18.978Z,10.03
2023-03-21T23:59:47.117Z,10.07
